Hawk Point, Missouri
Current Conditions -  °F | °C
As of 1:15 PM on Monday 20 Oct 2014 (Local Time) from KFYG Reporting Station
Clear Clear  
Wind Chill: 72°   Ceiling: Unl
Heat Index: 72°   Visibility: 10mi
Dew Point: 50°   Wind: 8mph
Humidity: 46%   Direction: 300°WNW
Pressure: 29.97"   Gusts: NA
Location:  38.97°N, 91.13°W
Report Text: KFYG 201815Z AUTO 30007KT 10SM CLR 22/10 A2997 RMK AO2
Loading
Personal Weather Stations






























Interactive Weather Map
Tropical Storm Tracking
New forecast layout! Learn more

10-Day Weather Forecast

Advertisements
Track Severe Weather on mobile